sensor_id;sensor_type;location;lat;lon;timestamp;P1;durP1;ratioP1;P2;durP2;ratioP2
75456;SDS011;64036;48.266;14.192;2024-02-21T00:02:27;7.90;;;2.70;;
75456;SDS011;64036;48.266;14.192;2024-02-21T00:04:53;6.90;;;2.60;;
75456;SDS011;64036;48.266;14.192;2024-02-21T00:07:19;8.30;;;3.00;;
75456;SDS011;64036;48.266;14.192;2024-02-21T00:09:45;6.40;;;2.60;;
75456;SDS011;64036;48.266;14.192;2024-02-21T00:12:18;6.20;;;2.50;;
75456;SDS011;64036;48.266;14.192;2024-02-21T00:14:45;6.40;;;2.70;;
75456;SDS011;64036;48.266;14.192;2024-02-21T00:17:11;7.90;;;2.60;;
75456;SDS011;64036;48.266;14.192;2024-02-21T00:19:37;8.50;;;2.60;;
75456;SDS011;64036;48.266;14.192;2024-02-21T00:22:03;6.00;;;2.50;;
75456;SDS011;64036;48.266;14.192;2024-02-21T00:24:29;6.50;;;2.70;;
75456;SDS011;64036;48.266;14.192;2024-02-21T00:26:55;6.60;;;3.10;;
75456;SDS011;64036;48.266;14.192;2024-02-21T00:29:28;6.00;;;2.30;;
75456;SDS011;64036;48.266;14.192;2024-02-21T00:31:54;5.70;;;2.60;;
75456;SDS011;64036;48.266;14.192;2024-02-21T00:34:19;6.20;;;2.40;;
75456;SDS011;64036;48.266;14.192;2024-02-21T00:36:45;5.10;;;2.50;;
75456;SDS011;64036;48.266;14.192;2024-02-21T00:39:11;7.20;;;2.50;;
75456;SDS011;64036;48.266;14.192;2024-02-21T00:41:37;7.10;;;2.50;;
75456;SDS011;64036;48.266;14.192;2024-02-21T00:44:02;5.80;;;2.60;;
75456;SDS011;64036;48.266;14.192;2024-02-21T00:46:30;5.60;;;2.40;;
75456;SDS011;64036;48.266;14.192;2024-02-21T00:48:56;8.60;;;2.90;;
75456;SDS011;64036;48.266;14.192;2024-02-21T00:51:22;6.00;;;2.30;;
75456;SDS011;64036;48.266;14.192;2024-02-21T00:53:48;6.80;;;2.60;;
75456;SDS011;64036;48.266;14.192;2024-02-21T00:56:14;4.70;;;2.00;;
75456;SDS011;64036;48.266;14.192;2024-02-21T00:58:39;4.10;;;2.30;;
75456;SDS011;64036;48.266;14.192;2024-02-21T01:01:08;7.40;;;2.40;;
75456;SDS011;64036;48.266;14.192;2024-02-21T01:03:34;6.30;;;2.40;;
75456;SDS011;64036;48.266;14.192;2024-02-21T01:06:00;5.00;;;2.10;;
75456;SDS011;64036;48.266;14.192;2024-02-21T01:08:26;6.20;;;2.50;;
75456;SDS011;64036;48.266;14.192;2024-02-21T01:10:51;6.60;;;2.60;;
75456;SDS011;64036;48.266;14.192;2024-02-21T01:13:17;4.90;;;2.40;;
75456;SDS011;64036;48.266;14.192;2024-02-21T01:15:43;6.30;;;2.60;;
75456;SDS011;64036;48.266;14.192;2024-02-21T01:18:09;6.90;;;2.60;;
75456;SDS011;64036;48.266;14.192;2024-02-21T01:20:34;5.10;;;2.30;;
75456;SDS011;64036;48.266;14.192;2024-02-21T01:23:13;5.70;;;2.40;;
75456;SDS011;64036;48.266;14.192;2024-02-21T01:25:59;8.70;;;2.70;;
75456;SDS011;64036;48.266;14.192;2024-02-21T01:28:30;8.20;;;2.70;;
75456;SDS011;64036;48.266;14.192;2024-02-21T01:30:56;6.60;;;3.00;;
75456;SDS011;64036;48.266;14.192;2024-02-21T01:33:25;6.30;;;2.80;;
75456;SDS011;64036;48.266;14.192;2024-02-21T01:35:51;8.70;;;2.60;;
75456;SDS011;64036;48.266;14.192;2024-02-21T01:38:17;7.50;;;2.30;;
75456;SDS011;64036;48.266;14.192;2024-02-21T01:40:42;4.30;;;2.20;;
75456;SDS011;64036;48.266;14.192;2024-02-21T01:43:18;5.40;;;2.50;;
75456;SDS011;64036;48.266;14.192;2024-02-21T01:45:50;5.20;;;2.50;;
75456;SDS011;64036;48.266;14.192;2024-02-21T01:51:03;5.70;;;2.40;;
75456;SDS011;64036;48.266;14.192;2024-02-21T01:53:33;5.90;;;2.40;;
75456;SDS011;64036;48.266;14.192;2024-02-21T01:56:11;4.30;;;2.50;;
75456;SDS011;64036;48.266;14.192;2024-02-21T01:58:40;6.00;;;2.50;;
75456;SDS011;64036;48.266;14.192;2024-02-21T02:01:08;6.10;;;2.60;;
75456;SDS011;64036;48.266;14.192;2024-02-21T02:03:55;6.50;;;3.10;;
75456;SDS011;64036;48.266;14.192;2024-02-21T02:06:21;7.00;;;2.80;;
75456;SDS011;64036;48.266;14.192;2024-02-21T02:09:00;6.80;;;2.50;;
75456;SDS011;64036;48.266;14.192;2024-02-21T02:15:03;4.50;;;2.30;;
75456;SDS011;64036;48.266;14.192;2024-02-21T02:17:49;5.20;;;2.10;;
75456;SDS011;64036;48.266;14.192;2024-02-21T02:20:39;5.70;;;2.40;;
75456;SDS011;64036;48.266;14.192;2024-02-21T02:23:46;7.60;;;2.40;;
75456;SDS011;64036;48.266;14.192;2024-02-21T02:26:44;6.60;;;2.20;;
75456;SDS011;64036;48.266;14.192;2024-02-21T02:29:24;7.70;;;2.60;;
75456;SDS011;64036;48.266;14.192;2024-02-21T02:31:50;7.80;;;2.90;;
75456;SDS011;64036;48.266;14.192;2024-02-21T02:34:16;5.20;;;2.10;;
75456;SDS011;64036;48.266;14.192;2024-02-21T02:36:43;6.30;;;2.50;;
75456;SDS011;64036;48.266;14.192;2024-02-21T02:39:11;6.50;;;2.40;;
75456;SDS011;64036;48.266;14.192;2024-02-21T02:41:37;6.40;;;2.60;;
75456;SDS011;64036;48.266;14.192;2024-02-21T02:44:10;5.90;;;2.80;;
75456;SDS011;64036;48.266;14.192;2024-02-21T02:46:51;5.40;;;2.80;;
75456;SDS011;64036;48.266;14.192;2024-02-21T02:49:17;11.20;;;3.50;;
75456;SDS011;64036;48.266;14.192;2024-02-21T02:51:43;5.30;;;2.70;;
75456;SDS011;64036;48.266;14.192;2024-02-21T02:54:12;5.10;;;2.30;;
75456;SDS011;64036;48.266;14.192;2024-02-21T02:56:43;7.70;;;3.00;;
75456;SDS011;64036;48.266;14.192;2024-02-21T02:59:09;5.40;;;2.40;;
75456;SDS011;64036;48.266;14.192;2024-02-21T03:01:35;7.00;;;2.70;;
75456;SDS011;64036;48.266;14.192;2024-02-21T03:04:02;7.30;;;2.70;;
75456;SDS011;64036;48.266;14.192;2024-02-21T03:06:28;6.50;;;2.60;;
75456;SDS011;64036;48.266;14.192;2024-02-21T03:08:53;8.70;;;2.80;;
75456;SDS011;64036;48.266;14.192;2024-02-21T03:11:20;4.80;;;2.40;;
75456;SDS011;64036;48.266;14.192;2024-02-21T03:13:53;7.80;;;3.10;;
75456;SDS011;64036;48.266;14.192;2024-02-21T03:16:19;5.90;;;2.80;;
75456;SDS011;64036;48.266;14.192;2024-02-21T03:18:45;9.00;;;2.90;;
75456;SDS011;64036;48.266;14.192;2024-02-21T03:21:10;5.60;;;2.70;;
75456;SDS011;64036;48.266;14.192;2024-02-21T03:23:39;5.30;;;2.40;;
75456;SDS011;64036;48.266;14.192;2024-02-21T03:26:05;6.50;;;2.50;;
75456;SDS011;64036;48.266;14.192;2024-02-21T03:28:31;6.10;;;2.30;;
75456;SDS011;64036;48.266;14.192;2024-02-21T03:30:57;4.30;;;2.10;;
75456;SDS011;64036;48.266;14.192;2024-02-21T03:33:22;4.90;;;2.30;;
75456;SDS011;64036;48.266;14.192;2024-02-21T03:35:48;5.30;;;2.10;;
75456;SDS011;64036;48.266;14.192;2024-02-21T03:38:14;7.80;;;2.40;;
75456;SDS011;64036;48.266;14.192;2024-02-21T03:40:40;5.30;;;2.50;;
75456;SDS011;64036;48.266;14.192;2024-02-21T03:43:06;5.00;;;2.30;;
75456;SDS011;64036;48.266;14.192;2024-02-21T03:45:32;5.60;;;2.30;;
75456;SDS011;64036;48.266;14.192;2024-02-21T03:47:57;6.90;;;2.40;;
75456;SDS011;64036;48.266;14.192;2024-02-21T03:50:24;6.10;;;2.70;;
75456;SDS011;64036;48.266;14.192;2024-02-21T03:52:55;5.10;;;2.30;;
75456;SDS011;64036;48.266;14.192;2024-02-21T03:55:21;4.50;;;2.10;;
75456;SDS011;64036;48.266;14.192;2024-02-21T03:57:56;4.20;;;2.10;;
75456;SDS011;64036;48.266;14.192;2024-02-21T04:00:24;7.30;;;2.30;;
75456;SDS011;64036;48.266;14.192;2024-02-21T04:02:50;5.60;;;2.30;;
75456;SDS011;64036;48.266;14.192;2024-02-21T04:05:16;4.90;;;2.10;;
75456;SDS011;64036;48.266;14.192;2024-02-21T04:07:42;6.60;;;2.40;;
75456;SDS011;64036;48.266;14.192;2024-02-21T04:10:12;7.70;;;2.40;;
75456;SDS011;64036;48.266;14.192;2024-02-21T04:12:38;5.30;;;2.30;;
75456;SDS011;64036;48.266;14.192;2024-02-21T04:15:04;5.70;;;2.10;;
75456;SDS011;64036;48.266;14.192;2024-02-21T04:17:30;6.20;;;2.30;;
75456;SDS011;64036;48.266;14.192;2024-02-21T04:20:04;3.90;;;1.90;;
75456;SDS011;64036;48.266;14.192;2024-02-21T04:22:31;3.20;;;1.60;;
75456;SDS011;64036;48.266;14.192;2024-02-21T04:24:59;4.10;;;1.90;;
75456;SDS011;64036;48.266;14.192;2024-02-21T04:27:26;4.20;;;2.00;;
75456;SDS011;64036;48.266;14.192;2024-02-21T04:29:53;4.60;;;2.00;;
75456;SDS011;64036;48.266;14.192;2024-02-21T04:32:20;2.80;;;1.80;;
75456;SDS011;64036;48.266;14.192;2024-02-21T04:34:48;5.00;;;1.90;;
75456;SDS011;64036;48.266;14.192;2024-02-21T04:37:14;5.00;;;1.80;;
75456;SDS011;64036;48.266;14.192;2024-02-21T04:39:40;5.80;;;1.80;;
75456;SDS011;64036;48.266;14.192;2024-02-21T04:42:06;4.30;;;1.80;;
75456;SDS011;64036;48.266;14.192;2024-02-21T04:44:40;4.10;;;2.10;;
75456;SDS011;64036;48.266;14.192;2024-02-21T04:47:07;5.10;;;1.70;;
75456;SDS011;64036;48.266;14.192;2024-02-21T04:49:33;4.80;;;2.20;;
75456;SDS011;64036;48.266;14.192;2024-02-21T04:52:00;6.30;;;2.10;;
75456;SDS011;64036;48.266;14.192;2024-02-21T04:54:35;4.50;;;2.00;;
75456;SDS011;64036;48.266;14.192;2024-02-21T04:57:15;3.70;;;1.90;;
75456;SDS011;64036;48.266;14.192;2024-02-21T04:59:44;4.30;;;2.10;;
75456;SDS011;64036;48.266;14.192;2024-02-21T05:02:11;5.20;;;1.90;;
75456;SDS011;64036;48.266;14.192;2024-02-21T05:04:37;7.30;;;2.10;;
75456;SDS011;64036;48.266;14.192;2024-02-21T05:07:04;6.40;;;2.10;;
75456;SDS011;64036;48.266;14.192;2024-02-21T05:09:30;5.80;;;2.20;;
75456;SDS011;64036;48.266;14.192;2024-02-21T05:11:56;7.70;;;2.40;;
75456;SDS011;64036;48.266;14.192;2024-02-21T05:14:24;5.50;;;2.30;;
75456;SDS011;64036;48.266;14.192;2024-02-21T05:16:52;4.90;;;2.40;;
75456;SDS011;64036;48.266;14.192;2024-02-21T05:19:18;7.10;;;2.60;;
75456;SDS011;64036;48.266;14.192;2024-02-21T05:21:44;5.90;;;2.30;;
75456;SDS011;64036;48.266;14.192;2024-02-21T05:24:16;7.20;;;2.40;;
75456;SDS011;64036;48.266;14.192;2024-02-21T05:26:50;7.80;;;2.70;;
75456;SDS011;64036;48.266;14.192;2024-02-21T05:29:28;5.10;;;2.00;;
75456;SDS011;64036;48.266;14.192;2024-02-21T05:34:22;6.90;;;2.70;;
75456;SDS011;64036;48.266;14.192;2024-02-21T05:36:48;6.80;;;2.30;;
75456;SDS011;64036;48.266;14.192;2024-02-21T05:39:17;4.90;;;2.00;;
75456;SDS011;64036;48.266;14.192;2024-02-21T05:41:44;3.90;;;2.10;;
75456;SDS011;64036;48.266;14.192;2024-02-21T05:44:14;4.00;;;2.10;;
75456;SDS011;64036;48.266;14.192;2024-02-21T05:47:01;7.60;;;2.10;;
75456;SDS011;64036;48.266;14.192;2024-02-21T05:49:36;6.50;;;2.50;;
75456;SDS011;64036;48.266;14.192;2024-02-21T05:52:02;8.40;;;2.20;;
75456;SDS011;64036;48.266;14.192;2024-02-21T05:54:28;6.60;;;2.30;;
75456;SDS011;64036;48.266;14.192;2024-02-21T05:56:53;5.90;;;2.30;;
75456;SDS011;64036;48.266;14.192;2024-02-21T05:59:25;5.20;;;2.40;;
75456;SDS011;64036;48.266;14.192;2024-02-21T06:01:59;4.20;;;2.10;;
75456;SDS011;64036;48.266;14.192;2024-02-21T06:04:29;5.80;;;2.10;;
75456;SDS011;64036;48.266;14.192;2024-02-21T06:07:00;5.50;;;2.10;;
75456;SDS011;64036;48.266;14.192;2024-02-21T06:09:32;5.70;;;2.30;;
75456;SDS011;64036;48.266;14.192;2024-02-21T06:11:58;5.20;;;2.10;;
75456;SDS011;64036;48.266;14.192;2024-02-21T06:14:23;6.50;;;2.10;;
75456;SDS011;64036;48.266;14.192;2024-02-21T06:16:55;5.40;;;2.00;;
75456;SDS011;64036;48.266;14.192;2024-02-21T06:19:45;5.40;;;2.10;;
75456;SDS011;64036;48.266;14.192;2024-02-21T06:22:30;10.40;;;3.30;;
75456;SDS011;64036;48.266;14.192;2024-02-21T06:25:30;5.60;;;2.10;;
75456;SDS011;64036;48.266;14.192;2024-02-21T06:28:21;5.30;;;2.10;;
75456;SDS011;64036;48.266;14.192;2024-02-21T06:31:06;4.70;;;2.30;;
75456;SDS011;64036;48.266;14.192;2024-02-21T06:33:52;6.40;;;2.80;;
75456;SDS011;64036;48.266;14.192;2024-02-21T06:36:44;4.50;;;2.20;;
75456;SDS011;64036;48.266;14.192;2024-02-21T06:39:41;5.00;;;2.10;;
75456;SDS011;64036;48.266;14.192;2024-02-21T06:42:43;4.50;;;2.20;;
75456;SDS011;64036;48.266;14.192;2024-02-21T06:45:48;4.20;;;2.10;;
75456;SDS011;64036;48.266;14.192;2024-02-21T06:48:20;5.40;;;2.30;;
75456;SDS011;64036;48.266;14.192;2024-02-21T06:50:46;3.90;;;2.00;;
75456;SDS011;64036;48.266;14.192;2024-02-21T06:53:12;7.40;;;2.10;;
75456;SDS011;64036;48.266;14.192;2024-02-21T06:55:38;3.50;;;1.80;;
75456;SDS011;64036;48.266;14.192;2024-02-21T06:58:07;5.20;;;2.30;;
75456;SDS011;64036;48.266;14.192;2024-02-21T07:00:36;5.10;;;2.20;;
75456;SDS011;64036;48.266;14.192;2024-02-21T07:03:09;6.50;;;2.80;;
75456;SDS011;64036;48.266;14.192;2024-02-21T07:05:48;5.00;;;2.20;;
75456;SDS011;64036;48.266;14.192;2024-02-21T07:08:36;5.70;;;2.40;;
75456;SDS011;64036;48.266;14.192;2024-02-21T07:11:13;6.10;;;2.50;;
75456;SDS011;64036;48.266;14.192;2024-02-21T07:13:50;6.20;;;2.50;;
75456;SDS011;64036;48.266;14.192;2024-02-21T07:16:17;6.10;;;2.50;;
75456;SDS011;64036;48.266;14.192;2024-02-21T07:18:43;5.00;;;2.30;;
75456;SDS011;64036;48.266;14.192;2024-02-21T07:21:08;4.40;;;2.30;;
75456;SDS011;64036;48.266;14.192;2024-02-21T07:23:34;5.00;;;2.00;;
75456;SDS011;64036;48.266;14.192;2024-02-21T07:26:00;6.90;;;2.50;;
75456;SDS011;64036;48.266;14.192;2024-02-21T07:28:26;5.60;;;2.70;;
75456;SDS011;64036;48.266;14.192;2024-02-21T07:30:51;6.00;;;2.00;;
75456;SDS011;64036;48.266;14.192;2024-02-21T07:33:17;5.60;;;2.30;;
75456;SDS011;64036;48.266;14.192;2024-02-21T07:35:46;5.60;;;2.10;;
75456;SDS011;64036;48.266;14.192;2024-02-21T07:38:12;6.20;;;2.20;;
75456;SDS011;64036;48.266;14.192;2024-02-21T07:40:38;6.90;;;2.50;;
75456;SDS011;64036;48.266;14.192;2024-02-21T07:43:04;4.60;;;2.50;;
75456;SDS011;64036;48.266;14.192;2024-02-21T07:45:29;5.20;;;2.20;;
75456;SDS011;64036;48.266;14.192;2024-02-21T07:47:55;3.90;;;2.10;;
75456;SDS011;64036;48.266;14.192;2024-02-21T07:50:21;4.30;;;2.10;;
75456;SDS011;64036;48.266;14.192;2024-02-21T07:52:46;5.90;;;2.50;;
75456;SDS011;64036;48.266;14.192;2024-02-21T07:55:12;5.30;;;2.70;;
75456;SDS011;64036;48.266;14.192;2024-02-21T07:57:38;5.40;;;2.20;;
75456;SDS011;64036;48.266;14.192;2024-02-21T08:00:04;6.10;;;2.20;;
75456;SDS011;64036;48.266;14.192;2024-02-21T08:02:30;4.70;;;2.00;;
75456;SDS011;64036;48.266;14.192;2024-02-21T08:04:56;6.40;;;2.30;;
75456;SDS011;64036;48.266;14.192;2024-02-21T08:07:21;4.10;;;1.90;;
75456;SDS011;64036;48.266;14.192;2024-02-21T08:09:47;5.10;;;2.30;;
75456;SDS011;64036;48.266;14.192;2024-02-21T08:12:13;4.40;;;1.60;;
75456;SDS011;64036;48.266;14.192;2024-02-21T08:14:38;4.50;;;1.80;;
75456;SDS011;64036;48.266;14.192;2024-02-21T08:17:04;4.40;;;1.90;;
75456;SDS011;64036;48.266;14.192;2024-02-21T08:19:30;5.30;;;1.60;;
75456;SDS011;64036;48.266;14.192;2024-02-21T08:21:55;4.10;;;1.80;;
75456;SDS011;64036;48.266;14.192;2024-02-21T08:24:21;4.90;;;1.60;;
75456;SDS011;64036;48.266;14.192;2024-02-21T08:26:48;4.70;;;1.50;;
75456;SDS011;64036;48.266;14.192;2024-02-21T08:29:13;3.00;;;1.30;;
75456;SDS011;64036;48.266;14.192;2024-02-21T08:31:39;4.80;;;2.10;;
75456;SDS011;64036;48.266;14.192;2024-02-21T08:34:05;4.40;;;1.60;;
75456;SDS011;64036;48.266;14.192;2024-02-21T08:36:31;3.10;;;1.40;;
75456;SDS011;64036;48.266;14.192;2024-02-21T08:38:58;5.50;;;1.50;;
75456;SDS011;64036;48.266;14.192;2024-02-21T08:41:24;4.00;;;1.40;;
75456;SDS011;64036;48.266;14.192;2024-02-21T08:43:51;4.90;;;1.60;;
75456;SDS011;64036;48.266;14.192;2024-02-21T08:46:19;4.50;;;1.80;;
75456;SDS011;64036;48.266;14.192;2024-02-21T08:48:46;5.40;;;1.70;;
75456;SDS011;64036;48.266;14.192;2024-02-21T08:51:12;3.90;;;1.70;;
75456;SDS011;64036;48.266;14.192;2024-02-21T08:53:38;3.50;;;1.70;;
75456;SDS011;64036;48.266;14.192;2024-02-21T08:56:05;5.40;;;1.90;;
75456;SDS011;64036;48.266;14.192;2024-02-21T08:58:33;3.60;;;1.50;;
75456;SDS011;64036;48.266;14.192;2024-02-21T09:01:00;5.60;;;1.70;;
75456;SDS011;64036;48.266;14.192;2024-02-21T09:03:26;4.30;;;1.60;;
75456;SDS011;64036;48.266;14.192;2024-02-21T09:05:52;6.00;;;1.90;;
75456;SDS011;64036;48.266;14.192;2024-02-21T09:08:18;4.10;;;1.60;;
75456;SDS011;64036;48.266;14.192;2024-02-21T09:10:44;4.80;;;1.60;;
75456;SDS011;64036;48.266;14.192;2024-02-21T09:13:10;2.70;;;1.30;;
75456;SDS011;64036;48.266;14.192;2024-02-21T09:15:35;3.00;;;1.50;;
75456;SDS011;64036;48.266;14.192;2024-02-21T09:18:01;4.70;;;1.60;;
75456;SDS011;64036;48.266;14.192;2024-02-21T09:20:27;4.10;;;1.60;;
75456;SDS011;64036;48.266;14.192;2024-02-21T09:22:52;4.60;;;1.50;;
75456;SDS011;64036;48.266;14.192;2024-02-21T09:25:18;5.10;;;2.00;;
75456;SDS011;64036;48.266;14.192;2024-02-21T09:27:45;4.90;;;1.60;;
75456;SDS011;64036;48.266;14.192;2024-02-21T09:30:11;3.50;;;1.60;;
75456;SDS011;64036;48.266;14.192;2024-02-21T09:32:40;3.60;;;1.60;;
75456;SDS011;64036;48.266;14.192;2024-02-21T09:35:06;3.20;;;1.40;;
75456;SDS011;64036;48.266;14.192;2024-02-21T09:37:32;3.50;;;1.40;;
75456;SDS011;64036;48.266;14.192;2024-02-21T09:39:58;5.20;;;2.00;;
75456;SDS011;64036;48.266;14.192;2024-02-21T09:42:37;7.20;;;1.90;;
75456;SDS011;64036;48.266;14.192;2024-02-21T09:45:26;4.50;;;1.60;;
75456;SDS011;64036;48.266;14.192;2024-02-21T09:48:06;5.50;;;1.80;;
75456;SDS011;64036;48.266;14.192;2024-02-21T09:50:46;5.00;;;1.80;;
75456;SDS011;64036;48.266;14.192;2024-02-21T09:53:13;7.50;;;1.90;;
75456;SDS011;64036;48.266;14.192;2024-02-21T09:55:40;4.50;;;1.70;;
75456;SDS011;64036;48.266;14.192;2024-02-21T09:58:07;3.60;;;1.60;;
75456;SDS011;64036;48.266;14.192;2024-02-21T10:00:35;5.00;;;1.70;;
75456;SDS011;64036;48.266;14.192;2024-02-21T10:03:01;5.60;;;1.60;;
75456;SDS011;64036;48.266;14.192;2024-02-21T10:07:59;2.50;;;1.50;;
75456;SDS011;64036;48.266;14.192;2024-02-21T10:10:25;2.80;;;1.40;;
75456;SDS011;64036;48.266;14.192;2024-02-21T10:12:52;4.20;;;1.70;;
75456;SDS011;64036;48.266;14.192;2024-02-21T10:15:24;4.60;;;1.90;;
75456;SDS011;64036;48.266;14.192;2024-02-21T10:17:58;4.80;;;1.80;;
75456;SDS011;64036;48.266;14.192;2024-02-21T10:20:24;3.30;;;1.40;;
75456;SDS011;64036;48.266;14.192;2024-02-21T10:23:03;4.80;;;2.00;;
75456;SDS011;64036;48.266;14.192;2024-02-21T10:25:34;3.70;;;1.50;;
75456;SDS011;64036;48.266;14.192;2024-02-21T10:28:02;2.60;;;1.60;;
75456;SDS011;64036;48.266;14.192;2024-02-21T10:30:28;7.50;;;1.90;;
75456;SDS011;64036;48.266;14.192;2024-02-21T10:32:54;5.10;;;1.60;;
75456;SDS011;64036;48.266;14.192;2024-02-21T10:35:30;4.10;;;1.60;;
75456;SDS011;64036;48.266;14.192;2024-02-21T10:37:58;4.90;;;1.70;;
75456;SDS011;64036;48.266;14.192;2024-02-21T10:40:28;4.50;;;1.70;;
75456;SDS011;64036;48.266;14.192;2024-02-21T10:42:59;4.50;;;1.60;;
75456;SDS011;64036;48.266;14.192;2024-02-21T10:45:35;4.40;;;1.50;;
75456;SDS011;64036;48.266;14.192;2024-02-21T10:48:10;9.10;;;1.60;;
75456;SDS011;64036;48.266;14.192;2024-02-21T10:51:02;4.80;;;1.80;;
75456;SDS011;64036;48.266;14.192;2024-02-21T10:53:59;4.10;;;1.60;;
75456;SDS011;64036;48.266;14.192;2024-02-21T10:56:38;3.00;;;1.50;;
75456;SDS011;64036;48.266;14.192;2024-02-21T10:59:06;4.10;;;1.80;;
75456;SDS011;64036;48.266;14.192;2024-02-21T11:01:33;4.80;;;1.70;;
75456;SDS011;64036;48.266;14.192;2024-02-21T11:04:04;4.10;;;1.40;;
75456;SDS011;64036;48.266;14.192;2024-02-21T11:06:32;3.50;;;1.60;;
75456;SDS011;64036;48.266;14.192;2024-02-21T11:09:07;3.70;;;1.60;;
75456;SDS011;64036;48.266;14.192;2024-02-21T11:14:11;4.40;;;1.80;;
75456;SDS011;64036;48.266;14.192;2024-02-21T11:16:43;6.10;;;1.60;;
75456;SDS011;64036;48.266;14.192;2024-02-21T11:19:19;4.60;;;1.80;;
75456;SDS011;64036;48.266;14.192;2024-02-21T11:21:46;4.20;;;1.40;;
75456;SDS011;64036;48.266;14.192;2024-02-21T11:24:13;4.30;;;1.60;;
75456;SDS011;64036;48.266;14.192;2024-02-21T11:26:40;4.50;;;1.40;;
75456;SDS011;64036;48.266;14.192;2024-02-21T11:29:08;3.80;;;1.40;;
75456;SDS011;64036;48.266;14.192;2024-02-21T11:31:43;4.30;;;1.60;;
75456;SDS011;64036;48.266;14.192;2024-02-21T11:34:11;4.80;;;1.60;;
75456;SDS011;64036;48.266;14.192;2024-02-21T11:36:57;3.70;;;1.40;;
75456;SDS011;64036;48.266;14.192;2024-02-21T11:39:25;3.90;;;1.50;;
75456;SDS011;64036;48.266;14.192;2024-02-21T11:42:04;3.60;;;1.40;;
75456;SDS011;64036;48.266;14.192;2024-02-21T11:44:33;3.20;;;1.20;;
75456;SDS011;64036;48.266;14.192;2024-02-21T11:47:00;4.30;;;1.40;;
75456;SDS011;64036;48.266;14.192;2024-02-21T11:49:27;3.40;;;1.40;;
75456;SDS011;64036;48.266;14.192;2024-02-21T11:52:03;7.70;;;1.80;;
75456;SDS011;64036;48.266;14.192;2024-02-21T11:54:30;5.70;;;1.60;;
75456;SDS011;64036;48.266;14.192;2024-02-21T11:56:56;5.40;;;1.60;;
75456;SDS011;64036;48.266;14.192;2024-02-21T11:59:22;4.40;;;1.30;;
75456;SDS011;64036;48.266;14.192;2024-02-21T12:01:52;3.40;;;1.40;;
75456;SDS011;64036;48.266;14.192;2024-02-21T12:04:22;4.40;;;1.30;;
75456;SDS011;64036;48.266;14.192;2024-02-21T12:06:52;3.70;;;1.60;;
75456;SDS011;64036;48.266;14.192;2024-02-21T12:09:19;4.20;;;1.50;;
75456;SDS011;64036;48.266;14.192;2024-02-21T12:11:45;5.10;;;1.40;;
75456;SDS011;64036;48.266;14.192;2024-02-21T12:14:16;3.80;;;1.40;;
75456;SDS011;64036;48.266;14.192;2024-02-21T12:16:42;4.50;;;1.30;;
75456;SDS011;64036;48.266;14.192;2024-02-21T12:19:13;4.20;;;1.60;;
75456;SDS011;64036;48.266;14.192;2024-02-21T12:21:39;5.90;;;1.60;;
75456;SDS011;64036;48.266;14.192;2024-02-21T12:26:47;4.00;;;1.50;;
75456;SDS011;64036;48.266;14.192;2024-02-21T12:29:13;4.10;;;1.60;;
75456;SDS011;64036;48.266;14.192;2024-02-21T12:31:39;5.00;;;1.70;;
75456;SDS011;64036;48.266;14.192;2024-02-21T12:34:05;4.20;;;1.50;;
75456;SDS011;64036;48.266;14.192;2024-02-21T12:36:32;4.30;;;1.70;;
75456;SDS011;64036;48.266;14.192;2024-02-21T12:38:58;3.30;;;1.60;;
75456;SDS011;64036;48.266;14.192;2024-02-21T12:41:25;2.90;;;1.20;;
75456;SDS011;64036;48.266;14.192;2024-02-21T12:43:52;3.70;;;1.40;;
75456;SDS011;64036;48.266;14.192;2024-02-21T12:46:18;4.90;;;1.50;;
75456;SDS011;64036;48.266;14.192;2024-02-21T12:48:44;4.50;;;1.30;;
75456;SDS011;64036;48.266;14.192;2024-02-21T12:51:10;3.90;;;1.70;;
75456;SDS011;64036;48.266;14.192;2024-02-21T12:53:36;3.60;;;1.50;;
75456;SDS011;64036;48.266;14.192;2024-02-21T12:56:02;5.10;;;1.60;;
75456;SDS011;64036;48.266;14.192;2024-02-21T12:58:30;2.60;;;1.30;;
75456;SDS011;64036;48.266;14.192;2024-02-21T13:00:57;3.60;;;1.30;;
75456;SDS011;64036;48.266;14.192;2024-02-21T13:03:22;6.10;;;1.50;;
75456;SDS011;64036;48.266;14.192;2024-02-21T13:05:48;3.30;;;1.30;;
75456;SDS011;64036;48.266;14.192;2024-02-21T13:08:14;4.30;;;1.40;;
75456;SDS011;64036;48.266;14.192;2024-02-21T13:10:40;5.40;;;1.50;;
75456;SDS011;64036;48.266;14.192;2024-02-21T13:13:05;4.80;;;1.50;;
75456;SDS011;64036;48.266;14.192;2024-02-21T13:15:31;6.00;;;1.50;;
75456;SDS011;64036;48.266;14.192;2024-02-21T13:17:57;2.20;;;1.40;;
75456;SDS011;64036;48.266;14.192;2024-02-21T13:20:26;4.50;;;1.50;;
75456;SDS011;64036;48.266;14.192;2024-02-21T13:22:53;4.00;;;1.40;;
75456;SDS011;64036;48.266;14.192;2024-02-21T13:25:19;3.80;;;1.40;;
75456;SDS011;64036;48.266;14.192;2024-02-21T13:27:47;4.40;;;1.50;;
75456;SDS011;64036;48.266;14.192;2024-02-21T13:30:14;5.40;;;1.50;;
75456;SDS011;64036;48.266;14.192;2024-02-21T13:32:41;3.20;;;1.40;;
75456;SDS011;64036;48.266;14.192;2024-02-21T13:35:08;3.30;;;1.20;;
75456;SDS011;64036;48.266;14.192;2024-02-21T13:37:40;3.60;;;1.50;;
75456;SDS011;64036;48.266;14.192;2024-02-21T13:40:06;4.30;;;1.80;;
75456;SDS011;64036;48.266;14.192;2024-02-21T13:42:35;2.30;;;1.20;;
75456;SDS011;64036;48.266;14.192;2024-02-21T13:45:01;3.90;;;1.40;;
75456;SDS011;64036;48.266;14.192;2024-02-21T13:47:27;3.40;;;1.30;;
75456;SDS011;64036;48.266;14.192;2024-02-21T13:49:53;3.40;;;1.40;;
75456;SDS011;64036;48.266;14.192;2024-02-21T13:52:19;2.90;;;1.20;;
75456;SDS011;64036;48.266;14.192;2024-02-21T13:54:47;3.50;;;1.50;;
75456;SDS011;64036;48.266;14.192;2024-02-21T13:57:13;3.00;;;1.30;;
75456;SDS011;64036;48.266;14.192;2024-02-21T13:59:39;5.90;;;1.70;;
75456;SDS011;64036;48.266;14.192;2024-02-21T14:02:05;2.70;;;1.10;;
75456;SDS011;64036;48.266;14.192;2024-02-21T14:04:34;3.30;;;1.40;;
75456;SDS011;64036;48.266;14.192;2024-02-21T14:07:01;3.30;;;1.20;;
75456;SDS011;64036;48.266;14.192;2024-02-21T14:09:27;3.50;;;1.10;;
75456;SDS011;64036;48.266;14.192;2024-02-21T14:11:55;5.10;;;1.90;;
75456;SDS011;64036;48.266;14.192;2024-02-21T14:14:21;5.90;;;1.50;;
75456;SDS011;64036;48.266;14.192;2024-02-21T14:16:47;3.30;;;1.30;;
75456;SDS011;64036;48.266;14.192;2024-02-21T14:19:14;5.10;;;1.40;;
75456;SDS011;64036;48.266;14.192;2024-02-21T14:21:40;2.60;;;1.00;;
75456;SDS011;64036;48.266;14.192;2024-02-21T14:24:07;4.80;;;1.40;;
75456;SDS011;64036;48.266;14.192;2024-02-21T14:26:33;3.70;;;1.20;;
75456;SDS011;64036;48.266;14.192;2024-02-21T14:28:59;5.10;;;1.60;;
75456;SDS011;64036;48.266;14.192;2024-02-21T14:31:25;3.70;;;1.40;;
75456;SDS011;64036;48.266;14.192;2024-02-21T14:33:52;3.70;;;1.30;;
75456;SDS011;64036;48.266;14.192;2024-02-21T14:36:17;3.00;;;1.40;;
75456;SDS011;64036;48.266;14.192;2024-02-21T14:38:44;3.80;;;1.20;;
75456;SDS011;64036;48.266;14.192;2024-02-21T14:41:13;3.00;;;1.20;;
75456;SDS011;64036;48.266;14.192;2024-02-21T14:43:38;2.40;;;1.20;;
75456;SDS011;64036;48.266;14.192;2024-02-21T14:46:04;4.20;;;1.50;;
75456;SDS011;64036;48.266;14.192;2024-02-21T14:48:34;2.70;;;1.20;;
75456;SDS011;64036;48.266;14.192;2024-02-21T14:51:01;3.60;;;1.20;;
75456;SDS011;64036;48.266;14.192;2024-02-21T14:53:27;4.30;;;1.30;;
75456;SDS011;64036;48.266;14.192;2024-02-21T14:55:54;3.00;;;1.30;;
75456;SDS011;64036;48.266;14.192;2024-02-21T14:58:20;3.40;;;1.30;;
75456;SDS011;64036;48.266;14.192;2024-02-21T15:00:46;2.70;;;1.20;;
75456;SDS011;64036;48.266;14.192;2024-02-21T15:03:16;2.50;;;1.30;;